Tropical Cyclones
[Index]
Main Index Home Page Stock Weather Photos Extreme Storms Discussion Storm News and Storm Chasing Reports Tropical Cyclones / Hurricanes / Typhoons Weather Data and Links Wild Fires / Bushfires Weather Observation Techniques Weather Picture Catalogue Tornado Pictures and Reports Stock Video Footage and DVDs for sale
Season 1997-1998 Tropical Cyclone OSEA Track Map
Season 1997-1998 Summaries (Operational Data): [AU] [SIO] [SPAC] [SH]
<<- Previous TC | 1997-1998 Season | Next TC ->>

click for intensity scale information  Lat/long Grid: Show Hide

 Date Labels: Show Hide

Operational Tropical Cyclone Data

Name: OSEA
Number: 9806

22 Nov 1997 00:00 UTC to 28 Nov 1997 06:00 UTC

    date/time    lat    long     hPa   cat  kts
1997-11-22 00    9.5   157.0W   1004         20          
1997-11-22 06    9.5   157.5W   1004         20          
1997-11-22 12    9.5   157.5W   1004         20          
1997-11-22 18   10.0   157.5W   1004         20          
1997-11-23 00   10.0   157.5W   1002         25          
1997-11-23 06   10.0   157.5W   1002         25          
1997-11-23 12   10.0   157.5W   1002         25          
1997-11-23 18   11.0   158.0W   1000         30          
1997-11-24 00   12.2   158.2W    996    1    35          
1997-11-24 06   12.9   157.9W    996    1    35          
1997-11-24 12   13.7   157.3W    990    1    40          
1997-11-24 18   13.9   156.6W    985    2    50          
1997-11-25 00   14.1   155.8W    980    2    55          
1997-11-25 06   14.3   154.9W    975    2    60          
1997-11-25 12   14.7   154.0W    970    3    65          
1997-11-25 18   15.2   153.2W    965    3    70          
1997-11-26 00   16.1   152.6W    955    3    80          
1997-11-26 06   17.0   152.0W    950    3    80          
1997-11-26 12   18.2   151.7W    950    3    80          
1997-11-26 18   18.8   151.2W    965    3    70          
1997-11-27 00   19.2   151.0W    975    2    60          
1997-11-27 06   20.0   150.7W    980    2    55          
1997-11-27 12   20.7   150.6W    985    2    50          
1997-11-27 18   21.0   150.4W    990    1    40          
1997-11-28 00   21.3   149.3W    995    1    35          
1997-11-28 06   21.5   148.5W    998         30          
Winds are 10-min average.

Tropical cyclone tracks developed by Michael Bath using operational warnings and advisories and Google Maps.


[Australian Severe Weather index] [Copyright Notice] [Email Contacts] [Search This Site] [Privacy Policy]
Document: tropical_cyclone_osea.htm Updated: 4 September 2016